Details From PAGY - SKAGWAY
To PAFE - KAKE
Flight Number -
Tags decoded
Created
Modified
Stats Distance 157 nm / 290 km
Max Altitude 0 ft / 0 m
Waypoints 2
Social Downloads 2
Likes 0
Share VATSIM

Download

Looking for another format? Having issues loading an existing format? Contact us
Advertisement - Login to hide

Notes

Requested: PAGY PAFE

Route

PAGY PAFE

ID Type Via Altitude Latitude Longitude Leg Dist Tot Dist Heading (true) Name
O PAGY APT - 0 ft / 0 m 59.46006˚ -135.31566˚ - 0 nm - SKAGWAY
O PAFE APT - 0 ft / 0 m 56.96136˚ -133.91026˚ 156 nm 156 nm 163° / 164° KAKE

Altitude Profile

Advertisement - Login to hide

PAGY

Details ICAO PAGY (SGY)
Name SKAGWAY
Region USA (Alaska)
Timezone America/Juneau (UTC-8.0)
Stats Elevation 44 ft / 13 m (AMSL)
Location 59.460062° -135.315661°
Runways 1
Magnetic Variation 19.210° E

METAR

PAGY 260553Z AUTO 05007KT 10SM -RA OVC060 10/05 A2981 RMK AO2 RAB47 SLP095 P0000 60000 T01000050 10122 20094 50001 TSNO

Decode

TAF

PAGY 260520Z 2606/2706 21010KT P6SM -SHRA OVC050 FM260800 VRB05KT P6SM -SHRA OVC050 FM262100 21014G24KT P6SM VCSH OVC050 AMD LTD TO CLD VIS AND WIND

Decode

Departure Runways

ID Width Length Bearing (true) Bearing (mag) Surface Threshold Offset Overrun Length
02 75 ft / 23 m 3,542 ft / 1,080 m 43.94° 24.73° Asphalt 0 ft / 0 m 299 ft / 91 m
20 75 ft / 23 m 3,542 ft / 1,080 m 223.95° 204.74° Asphalt 0 ft / 0 m 299 ft / 91 m

PAFE

Details ICAO PAFE (AFE)
Name KAKE
Region USA (Alaska)
Timezone America/Juneau (UTC-8.0)
Stats Elevation 172 ft / 52 m (AMSL)
Location 56.961362° -133.910261°
Runways 1
Magnetic Variation 18.731° E

METAR

PAFE 260556Z AUTO 11008KT 10SM -RA BKN016 OVC021 08/07 A2988 RMK AO2 SLP130 P0000 60001 T00830067 10100 20083 58004 $

Decode

TAF

Not found

Destination Runways

ID Width Length Bearing (true) Bearing (mag) Surface Threshold Offset Overrun Length
10 100 ft / 30 m 3,990 ft / 1,216 m 129.93° 111.20° Asphalt 0 ft / 0 m 295 ft / 90 m
28 100 ft / 30 m 3,990 ft / 1,216 m 309.94° 291.21° Asphalt 1,000 ft / 305 m 295 ft / 90 m